sensor_id;sensor_type;location;lat;lon;timestamp;pressure;altitude;pressure_sealevel;temperature;humidity
62895;BME280;49204;44.916;37.998;2023-03-14T00:01:23;101951.56;;;1.05;72.60
62895;BME280;49204;44.916;37.998;2023-03-14T00:03:53;101950.27;;;1.05;72.76
62895;BME280;49204;44.916;37.998;2023-03-14T00:06:22;101948.94;;;1.04;72.88
62895;BME280;49204;44.916;37.998;2023-03-14T00:08:51;101941.98;;;1.03;72.81
62895;BME280;49204;44.916;37.998;2023-03-14T00:11:21;101945.05;;;1.04;72.84
62895;BME280;49204;44.916;37.998;2023-03-14T00:13:53;101944.15;;;1.03;72.75
62895;BME280;49204;44.916;37.998;2023-03-14T00:16:21;101946.74;;;1.03;72.69
62895;BME280;49204;44.916;37.998;2023-03-14T00:18:50;101944.62;;;1.04;72.69
62895;BME280;49204;44.916;37.998;2023-03-14T00:21:19;101933.38;;;1.04;72.75
62895;BME280;49204;44.916;37.998;2023-03-14T00:23:48;101932.95;;;1.04;72.76
62895;BME280;49204;44.916;37.998;2023-03-14T00:26:18;101935.53;;;1.04;72.80
62895;BME280;49204;44.916;37.998;2023-03-14T00:28:50;101936.84;;;1.04;72.79
62895;BME280;49204;44.916;37.998;2023-03-14T00:31:18;101936.84;;;1.04;72.70
62895;BME280;49204;44.916;37.998;2023-03-14T00:33:47;101939.47;;;1.06;72.72
62895;BME280;49204;44.916;37.998;2023-03-14T00:36:17;101937.73;;;1.06;72.74
62895;BME280;49204;44.916;37.998;2023-03-14T00:38:49;101929.95;;;1.06;72.79
62895;BME280;49204;44.916;37.998;2023-03-14T00:41:21;101927.86;;;1.09;72.85
62895;BME280;49204;44.916;37.998;2023-03-14T00:43:50;101922.20;;;1.08;72.84
62895;BME280;49204;44.916;37.998;2023-03-14T00:46:20;101930.45;;;1.09;72.91
62895;BME280;49204;44.916;37.998;2023-03-14T00:48:48;101933.91;;;1.09;72.91
62895;BME280;49204;44.916;37.998;2023-03-14T00:51:17;101923.97;;;1.09;72.93
62895;BME280;49204;44.916;37.998;2023-03-14T00:53:46;101925.27;;;1.09;72.95
62895;BME280;49204;44.916;37.998;2023-03-14T00:56:15;101920.05;;;1.07;72.93
62895;BME280;49204;44.916;37.998;2023-03-14T00:58:45;101923.44;;;1.05;73.01
62895;BME280;49204;44.916;37.998;2023-03-14T01:01:16;101915.62;;;1.03;73.03
62895;BME280;49204;44.916;37.998;2023-03-14T01:03:46;101915.11;;;0.99;73.08
62895;BME280;49204;44.916;37.998;2023-03-14T01:06:18;101915.08;;;0.96;73.02
62895;BME280;49204;44.916;37.998;2023-03-14T01:08:47;101921.49;;;0.93;73.15
62895;BME280;49204;44.916;37.998;2023-03-14T01:11:19;101919.69;;;0.89;73.12
62895;BME280;49204;44.916;37.998;2023-03-14T01:13:48;101922.25;;;0.87;73.16
62895;BME280;49204;44.916;37.998;2023-03-14T01:16:18;101907.08;;;0.85;73.29
62895;BME280;49204;44.916;37.998;2023-03-14T01:18:48;101906.18;;;0.83;73.27
62895;BME280;49204;44.916;37.998;2023-03-14T01:21:19;101908.73;;;0.82;73.23
62895;BME280;49204;44.916;37.998;2023-03-14T01:23:50;101910.86;;;0.81;73.20
62895;BME280;49204;44.916;37.998;2023-03-14T01:26:21;101907.80;;;0.78;73.32
62895;BME280;49204;44.916;37.998;2023-03-14T01:28:52;101900.38;;;0.74;73.21
62895;BME280;49204;44.916;37.998;2023-03-14T01:31:21;101896.02;;;0.73;73.22
62895;BME280;49204;44.916;37.998;2023-03-14T01:33:50;101905.50;;;0.71;73.19
62895;BME280;49204;44.916;37.998;2023-03-14T01:36:20;101906.75;;;0.68;73.17
62895;BME280;49204;44.916;37.998;2023-03-14T01:38:49;101901.10;;;0.67;73.08
62895;BME280;49204;44.916;37.998;2023-03-14T01:41:22;101900.63;;;0.66;73.01
62895;BME280;49204;44.916;37.998;2023-03-14T01:43:52;101904.87;;;0.63;73.02
62895;BME280;49204;44.916;37.998;2023-03-14T01:46:41;101911.75;;;0.59;73.14
62895;BME280;49204;44.916;37.998;2023-03-14T01:49:31;101910.84;;;0.58;73.20
62895;BME280;49204;44.916;37.998;2023-03-14T01:52:13;101913.00;;;0.57;73.27
62895;BME280;49204;44.916;37.998;2023-03-14T01:54:55;101912.89;;;0.53;73.21
62895;BME280;49204;44.916;37.998;2023-03-14T01:57:35;101913.28;;;0.51;73.21
62895;BME280;49204;44.916;37.998;2023-03-14T02:00:10;101911.52;;;0.50;73.17
62895;BME280;49204;44.916;37.998;2023-03-14T02:02:45;101906.77;;;0.49;73.15
62895;BME280;49204;44.916;37.998;2023-03-14T02:05:18;101904.14;;;0.48;73.19
62895;BME280;49204;44.916;37.998;2023-03-14T02:07:59;101901.03;;;0.44;73.32
62895;BME280;49204;44.916;37.998;2023-03-14T02:10:42;101907.08;;;0.43;73.46
62895;BME280;49204;44.916;37.998;2023-03-14T02:13:12;101900.60;;;0.43;73.42
62895;BME280;49204;44.916;37.998;2023-03-14T02:15:43;101902.80;;;0.45;73.29
62895;BME280;49204;44.916;37.998;2023-03-14T02:18:17;101909.67;;;0.44;73.23
62895;BME280;49204;44.916;37.998;2023-03-14T02:29:41;101909.79;;;0.49;73.46
62895;BME280;49204;44.916;37.998;2023-03-14T02:32:11;101905.05;;;0.50;73.53
62895;BME280;49204;44.916;37.998;2023-03-14T02:34:41;101912.45;;;0.52;73.63
62895;BME280;49204;44.916;37.998;2023-03-14T02:37:14;101909.86;;;0.52;73.77
62895;BME280;49204;44.916;37.998;2023-03-14T02:39:45;101911.16;;;0.52;73.95
62895;BME280;49204;44.916;37.998;2023-03-14T02:42:16;101919.41;;;0.54;74.08
62895;BME280;49204;44.916;37.998;2023-03-14T02:44:54;101916.50;;;0.60;74.02
62895;BME280;49204;44.916;37.998;2023-03-14T02:47:30;101918.34;;;0.65;73.95
62895;BME280;49204;44.916;37.998;2023-03-14T02:50:08;101914.96;;;0.69;73.85
62895;BME280;49204;44.916;37.998;2023-03-14T02:52:27;101908.95;;;0.72;73.86
62895;BME280;49204;44.916;37.998;2023-03-14T02:54:56;101906.44;;;0.75;73.89
62895;BME280;49204;44.916;37.998;2023-03-14T02:57:26;101905.56;;;0.74;74.05
62895;BME280;49204;44.916;37.998;2023-03-14T02:59:57;101902.55;;;0.75;74.20
62895;BME280;49204;44.916;37.998;2023-03-14T03:02:24;101903.05;;;0.79;74.06
62895;BME280;49204;44.916;37.998;2023-03-14T03:04:53;101887.09;;;0.80;74.01
62895;BME280;49204;44.916;37.998;2023-03-14T03:07:21;101881.48;;;0.80;74.00
62895;BME280;49204;44.916;37.998;2023-03-14T03:09:50;101883.64;;;0.81;74.01
62895;BME280;49204;44.916;37.998;2023-03-14T03:12:19;101888.43;;;0.83;73.99
62895;BME280;49204;44.916;37.998;2023-03-14T03:14:48;101885.44;;;0.85;74.13
62895;BME280;49204;44.916;37.998;2023-03-14T03:17:17;101893.22;;;0.85;74.17
62895;BME280;49204;44.916;37.998;2023-03-14T03:19:45;101896.75;;;0.87;74.16
62895;BME280;49204;44.916;37.998;2023-03-14T03:22:14;101895.45;;;0.87;74.11
62895;BME280;49204;44.916;37.998;2023-03-14T03:24:42;101898.88;;;0.86;74.10
62895;BME280;49204;44.916;37.998;2023-03-14T03:27:11;101895.41;;;0.85;74.09
62895;BME280;49204;44.916;37.998;2023-03-14T03:29:40;101894.08;;;0.84;74.08
62895;BME280;49204;44.916;37.998;2023-03-14T03:32:09;101893.61;;;0.83;74.05
62895;BME280;49204;44.916;37.998;2023-03-14T03:34:38;101907.44;;;0.82;73.96
62895;BME280;49204;44.916;37.998;2023-03-14T03:37:07;101907.44;;;0.82;73.95
62895;BME280;49204;44.916;37.998;2023-03-14T03:39:37;101904.84;;;0.82;73.95
62895;BME280;49204;44.916;37.998;2023-03-14T03:42:06;101911.33;;;0.82;73.98
62895;BME280;49204;44.916;37.998;2023-03-14T03:44:35;101906.58;;;0.83;73.97
62895;BME280;49204;44.916;37.998;2023-03-14T03:47:04;101897.97;;;0.84;74.06
62895;BME280;49204;44.916;37.998;2023-03-14T03:49:33;101894.59;;;0.88;74.14
62895;BME280;49204;44.916;37.998;2023-03-14T03:52:02;101893.76;;;0.90;74.07
62895;BME280;49204;44.916;37.998;2023-03-14T03:54:30;101896.42;;;0.93;74.03
62895;BME280;49204;44.916;37.998;2023-03-14T03:56:59;101899.95;;;0.97;74.15
62895;BME280;49204;44.916;37.998;2023-03-14T03:59:28;101897.86;;;1.01;74.18
62895;BME280;49204;44.916;37.998;2023-03-14T04:01:57;101898.00;;;1.07;74.11
62895;BME280;49204;44.916;37.998;2023-03-14T04:04:26;101896.73;;;1.10;74.18
62895;BME280;49204;44.916;37.998;2023-03-14T04:06:55;101897.27;;;1.16;74.20
62895;BME280;49204;44.916;37.998;2023-03-14T04:09:24;101899.09;;;1.22;74.19
62895;BME280;49204;44.916;37.998;2023-03-14T04:12:00;101893.61;;;1.28;74.17
62895;BME280;49204;44.916;37.998;2023-03-14T04:14:36;101894.20;;;1.37;74.07
62895;BME280;49204;44.916;37.998;2023-03-14T04:17:12;101889.10;;;1.43;74.05
62895;BME280;49204;44.916;37.998;2023-03-14T04:19:41;101887.95;;;1.52;74.16
62895;BME280;49204;44.916;37.998;2023-03-14T04:22:10;101890.70;;;1.62;74.10
62895;BME280;49204;44.916;37.998;2023-03-14T04:24:40;101889.96;;;1.69;74.01
62895;BME280;49204;44.916;37.998;2023-03-14T04:27:09;101885.26;;;1.73;74.10
62895;BME280;49204;44.916;37.998;2023-03-14T04:29:38;101892.70;;;1.78;74.04
62895;BME280;49204;44.916;37.998;2023-03-14T04:39:04;101894.77;;;2.01;73.82
62895;BME280;49204;44.916;37.998;2023-03-14T04:41:34;101893.60;;;2.10;73.72
62895;BME280;49204;44.916;37.998;2023-03-14T04:44:04;101888.11;;;2.18;73.69
62895;BME280;49204;44.916;37.998;2023-03-14T04:46:34;101880.38;;;2.24;73.62
62895;BME280;49204;44.916;37.998;2023-03-14T04:49:04;101890.80;;;2.26;73.62
62895;BME280;49204;44.916;37.998;2023-03-14T04:51:33;101886.06;;;2.28;73.62
62895;BME280;49204;44.916;37.998;2023-03-14T04:54:02;101884.81;;;2.31;73.61
62895;BME280;49204;44.916;37.998;2023-03-14T04:56:31;101886.14;;;2.33;73.63
62895;BME280;49204;44.916;37.998;2023-03-14T04:59:02;101883.97;;;2.34;73.63
62895;BME280;49204;44.916;37.998;2023-03-14T05:01:32;101874.47;;;2.35;73.73
62895;BME280;49204;44.916;37.998;2023-03-14T05:04:18;101863.20;;;2.36;73.76
62895;BME280;49204;44.916;37.998;2023-03-14T05:06:49;101863.28;;;2.40;73.74
62895;BME280;49204;44.916;37.998;2023-03-14T05:09:28;101871.12;;;2.45;73.74
62895;BME280;49204;44.916;37.998;2023-03-14T05:12:07;101877.23;;;2.48;73.71
62895;BME280;49204;44.916;37.998;2023-03-14T05:14:53;101876.87;;;2.54;73.71
62895;BME280;49204;44.916;37.998;2023-03-14T05:17:36;101872.19;;;2.61;73.73
62895;BME280;49204;44.916;37.998;2023-03-14T05:20:15;101860.16;;;2.70;73.66
62895;BME280;49204;44.916;37.998;2023-03-14T05:22:51;101872.41;;;2.79;73.62
62895;BME280;49204;44.916;37.998;2023-03-14T05:25:22;101879.86;;;2.86;73.54
62895;BME280;49204;44.916;37.998;2023-03-14T05:27:58;101863.40;;;2.88;73.52
62895;BME280;49204;44.916;37.998;2023-03-14T05:30:41;101863.45;;;2.95;73.47
62895;BME280;49204;44.916;37.998;2023-03-14T05:33:29;101861.34;;;3.00;73.41
62895;BME280;49204;44.916;37.998;2023-03-14T05:36:12;101864.44;;;3.04;73.46
62895;BME280;49204;44.916;37.998;2023-03-14T05:38:58;101873.63;;;3.15;73.42
62895;BME280;49204;44.916;37.998;2023-03-14T05:41:41;101868.53;;;3.23;73.44
62895;BME280;49204;44.916;37.998;2023-03-14T05:44:20;101872.92;;;3.32;73.36
62895;BME280;49204;44.916;37.998;2023-03-14T05:47:03;101869.99;;;3.41;73.37
62895;BME280;49204;44.916;37.998;2023-03-14T05:49:42;101870.52;;;3.53;73.35
62895;BME280;49204;44.916;37.998;2023-03-14T05:52:15;101865.39;;;3.64;73.40
62895;BME280;49204;44.916;37.998;2023-03-14T05:54:48;101874.11;;;3.67;73.31
62895;BME280;49204;44.916;37.998;2023-03-14T05:57:25;101875.42;;;3.72;73.24
62895;BME280;49204;44.916;37.998;2023-03-14T05:59:58;101878.09;;;3.78;73.17
62895;BME280;49204;44.916;37.998;2023-03-14T06:02:43;101881.19;;;3.85;73.10
62895;BME280;49204;44.916;37.998;2023-03-14T06:05:13;101870.77;;;3.85;73.00
62895;BME280;49204;44.916;37.998;2023-03-14T06:07:42;101861.65;;;3.85;72.93
62895;BME280;49204;44.916;37.998;2023-03-14T06:10:11;101865.12;;;3.86;72.87
62895;BME280;49204;44.916;37.998;2023-03-14T06:12:40;101869.02;;;3.86;72.90
62895;BME280;49204;44.916;37.998;2023-03-14T06:15:09;101871.17;;;3.85;72.91
62895;BME280;49204;44.916;37.998;2023-03-14T06:17:39;101884.67;;;3.88;72.85
62895;BME280;49204;44.916;37.998;2023-03-14T06:20:10;101875.14;;;3.91;72.83
62895;BME280;49204;44.916;37.998;2023-03-14T06:22:39;101864.31;;;3.98;72.83
62895;BME280;49204;44.916;37.998;2023-03-14T06:25:09;101855.64;;;4.02;72.77
62895;BME280;49204;44.916;37.998;2023-03-14T06:27:38;101835.70;;;4.07;72.73
62895;BME280;49204;44.916;37.998;2023-03-14T06:30:08;101837.91;;;4.12;72.67
62895;BME280;49204;44.916;37.998;2023-03-14T06:32:37;101844.47;;;4.21;72.63
62895;BME280;49204;44.916;37.998;2023-03-14T06:35:08;101842.77;;;4.28;72.67
62895;BME280;49204;44.916;37.998;2023-03-14T06:37:38;101844.97;;;4.32;72.54
62895;BME280;49204;44.916;37.998;2023-03-14T06:40:08;101841.50;;;4.36;72.39
62895;BME280;49204;44.916;37.998;2023-03-14T06:42:39;101844.99;;;4.39;72.34
62895;BME280;49204;44.916;37.998;2023-03-14T06:45:09;101849.36;;;4.45;72.24
62895;BME280;49204;44.916;37.998;2023-03-14T06:47:38;101847.64;;;4.49;72.20
62895;BME280;49204;44.916;37.998;2023-03-14T06:50:08;101842.43;;;4.50;72.21
62895;BME280;49204;44.916;37.998;2023-03-14T06:52:38;101835.48;;;4.52;72.19
62895;BME280;49204;44.916;37.998;2023-03-14T06:55:09;101832.88;;;4.58;72.21
62895;BME280;49204;44.916;37.998;2023-03-14T06:57:37;101832.47;;;4.63;72.22
62895;BME280;49204;44.916;37.998;2023-03-14T07:00:07;101830.73;;;4.70;72.16
62895;BME280;49204;44.916;37.998;2023-03-14T07:02:37;101837.71;;;4.73;72.05
62895;BME280;49204;44.916;37.998;2023-03-14T07:05:07;101832.06;;;4.75;72.00
62895;BME280;49204;44.916;37.998;2023-03-14T07:07:38;101823.37;;;4.74;71.93
62895;BME280;49204;44.916;37.998;2023-03-14T07:10:07;101824.69;;;4.76;71.97
62895;BME280;49204;44.916;37.998;2023-03-14T07:12:36;101822.08;;;4.76;72.04
62895;BME280;49204;44.916;37.998;2023-03-14T07:15:05;101825.54;;;4.75;71.96
62895;BME280;49204;44.916;37.998;2023-03-14T07:17:34;101818.58;;;4.77;71.89
62895;BME280;49204;44.916;37.998;2023-03-14T07:20:05;101816.42;;;4.78;71.79
62895;BME280;49204;44.916;37.998;2023-03-14T07:22:34;101809.90;;;4.78;71.50
62895;BME280;49204;44.916;37.998;2023-03-14T07:25:04;101815.53;;;4.73;71.30
62895;BME280;49204;44.916;37.998;2023-03-14T07:27:33;101813.80;;;4.69;70.97
62895;BME280;49204;44.916;37.998;2023-03-14T07:30:02;101810.72;;;4.66;70.85
62895;BME280;49204;44.916;37.998;2023-03-14T07:32:31;101802.91;;;4.68;70.84
62895;BME280;49204;44.916;37.998;2023-03-14T07:34:59;101799.88;;;4.73;70.74
62895;BME280;49204;44.916;37.998;2023-03-14T07:37:28;101805.52;;;4.74;70.54
62895;BME280;49204;44.916;37.998;2023-03-14T07:39:58;101801.64;;;4.80;70.51
62895;BME280;49204;44.916;37.998;2023-03-14T07:42:28;101806.44;;;4.85;70.48
62895;BME280;49204;44.916;37.998;2023-03-14T07:45:01;101799.90;;;4.88;70.47
62895;BME280;49204;44.916;37.998;2023-03-14T07:47:30;101804.69;;;4.92;70.38
62895;BME280;49204;44.916;37.998;2023-03-14T07:49:59;101806.00;;;4.93;70.28
62895;BME280;49204;44.916;37.998;2023-03-14T07:52:28;101802.94;;;4.92;70.12
62895;BME280;49204;44.916;37.998;2023-03-14T07:54:57;101806.87;;;4.91;69.62
62895;BME280;49204;44.916;37.998;2023-03-14T07:57:26;101797.29;;;4.88;69.62
62895;BME280;49204;44.916;37.998;2023-03-14T07:59:54;101799.05;;;4.89;69.48
62895;BME280;49204;44.916;37.998;2023-03-14T08:02:23;101796.00;;;4.91;69.39
62895;BME280;49204;44.916;37.998;2023-03-14T08:04:52;101786.00;;;4.97;69.32
62895;BME280;49204;44.916;37.998;2023-03-14T08:07:20;101786.88;;;5.08;69.29
62895;BME280;49204;44.916;37.998;2023-03-14T08:09:49;101785.98;;;5.20;69.25
62895;BME280;49204;44.916;37.998;2023-03-14T08:12:17;101772.51;;;5.37;69.13
62895;BME280;49204;44.916;37.998;2023-03-14T08:14:46;101779.90;;;5.52;68.61
62895;BME280;49204;44.916;37.998;2023-03-14T08:17:15;101778.11;;;5.68;68.57
62895;BME280;49204;44.916;37.998;2023-03-14T08:19:43;101782.42;;;5.83;68.34
62895;BME280;49204;44.916;37.998;2023-03-14T08:22:12;101778.92;;;5.93;67.92
62895;BME280;49204;44.916;37.998;2023-03-14T08:24:40;101778.92;;;5.88;67.47
62895;BME280;49204;44.916;37.998;2023-03-14T08:27:09;101780.27;;;5.84;67.23
62895;BME280;49204;44.916;37.998;2023-03-14T08:29:38;101785.93;;;5.78;67.27
62895;BME280;49204;44.916;37.998;2023-03-14T08:32:08;101779.86;;;5.67;67.07
62895;BME280;49204;44.916;37.998;2023-03-14T08:34:36;101789.47;;;5.59;67.04
62895;BME280;49204;44.916;37.998;2023-03-14T08:37:05;101788.59;;;5.54;67.05
62895;BME280;49204;44.916;37.998;2023-03-14T08:39:34;101789.48;;;5.50;67.20
62895;BME280;49204;44.916;37.998;2023-03-14T08:42:03;101795.57;;;5.52;67.38
62895;BME280;49204;44.916;37.998;2023-03-14T08:44:32;101792.96;;;5.52;67.48
62895;BME280;49204;44.916;37.998;2023-03-14T08:47:00;101785.97;;;5.58;67.60
62895;BME280;49204;44.916;37.998;2023-03-14T08:49:29;101788.59;;;5.54;67.49
62895;BME280;49204;44.916;37.998;2023-03-14T08:51:58;101781.64;;;5.48;67.55
62895;BME280;49204;44.916;37.998;2023-03-14T08:54:26;101780.76;;;5.38;67.72
62895;BME280;49204;44.916;37.998;2023-03-14T08:56:55;101782.53;;;5.33;67.95
62895;BME280;49204;44.916;37.998;2023-03-14T08:59:24;101788.61;;;5.32;68.31
62895;BME280;49204;44.916;37.998;2023-03-14T09:01:53;101782.51;;;5.27;68.50
62895;BME280;49204;44.916;37.998;2023-03-14T09:04:21;101782.08;;;5.23;68.63
62895;BME280;49204;44.916;37.998;2023-03-14T09:06:50;101771.63;;;5.20;68.88
62895;BME280;49204;44.916;37.998;2023-03-14T09:09:19;101772.52;;;5.19;69.16
62895;BME280;49204;44.916;37.998;2023-03-14T09:11:47;101774.27;;;5.18;69.38
62895;BME280;49204;44.916;37.998;2023-03-14T09:14:16;101772.94;;;5.21;69.38
62895;BME280;49204;44.916;37.998;2023-03-14T09:16:44;101772.94;;;5.20;69.26
62895;BME280;49204;44.916;37.998;2023-03-14T09:19:13;101776.88;;;5.18;69.31
62895;BME280;49204;44.916;37.998;2023-03-14T09:21:42;101773.38;;;5.18;69.52
62895;BME280;49204;44.916;37.998;2023-03-14T09:24:10;101769.91;;;5.19;69.68
62895;BME280;49204;44.916;37.998;2023-03-14T09:26:39;101771.64;;;5.23;69.80
62895;BME280;49204;44.916;37.998;2023-03-14T09:29:07;101776.44;;;5.31;69.78
62895;BME280;49204;44.916;37.998;2023-03-14T09:31:36;101768.59;;;5.36;69.79
62895;BME280;49204;44.916;37.998;2023-03-14T09:34:05;101766.86;;;5.35;69.64
62895;BME280;49204;44.916;37.998;2023-03-14T09:36:33;101772.95;;;5.35;69.49
62895;BME280;49204;44.916;37.998;2023-03-14T09:39:02;101774.70;;;5.35;69.56
62895;BME280;49204;44.916;37.998;2023-03-14T09:41:33;101763.36;;;5.36;69.54
62895;BME280;49204;44.916;37.998;2023-03-14T09:46:36;101741.61;;;5.35;69.60
62895;BME280;49204;44.916;37.998;2023-03-14T09:49:17;101745.52;;;5.35;69.53
62895;BME280;49204;44.916;37.998;2023-03-14T09:51:46;101745.08;;;5.34;69.50
62895;BME280;49204;44.916;37.998;2023-03-14T09:54:35;101734.22;;;5.35;69.52
62895;BME280;49204;44.916;37.998;2023-03-14T09:56:59;101735.95;;;5.39;69.57
62895;BME280;49204;44.916;37.998;2023-03-14T09:59:29;101718.08;;;5.41;69.40
62895;BME280;49204;44.916;37.998;2023-03-14T10:02:11;101725.06;;;5.44;69.42
62895;BME280;49204;44.916;37.998;2023-03-14T10:04:32;101732.87;;;5.47;69.25
62895;BME280;49204;44.916;37.998;2023-03-14T10:07:01;101738.10;;;5.53;69.16
62895;BME280;49204;44.916;37.998;2023-03-14T10:09:30;101738.49;;;5.65;69.24
62895;BME280;49204;44.916;37.998;2023-03-14T10:11:59;101750.23;;;5.76;69.15
62895;BME280;49204;44.916;37.998;2023-03-14T10:14:33;101747.14;;;5.83;69.10
62895;BME280;49204;44.916;37.998;2023-03-14T10:17:10;101731.45;;;5.87;69.01
62895;BME280;49204;44.916;37.998;2023-03-14T10:19:57;101727.98;;;5.87;68.87
62895;BME280;49204;44.916;37.998;2023-03-14T10:22:32;101728.39;;;5.88;68.88
62895;BME280;49204;44.916;37.998;2023-03-14T10:25:05;101731.91;;;5.87;68.91
62895;BME280;49204;44.916;37.998;2023-03-14T10:27:36;101721.86;;;5.88;68.87
62895;BME280;49204;44.916;37.998;2023-03-14T10:30:07;101735.37;;;5.89;68.75
62895;BME280;49204;44.916;37.998;2023-03-14T10:32:38;101733.62;;;5.88;68.55
62895;BME280;49204;44.916;37.998;2023-03-14T10:35:18;101733.62;;;5.91;68.61
62895;BME280;49204;44.916;37.998;2023-03-14T10:40:24;101727.53;;;5.99;68.61
62895;BME280;49204;44.916;37.998;2023-03-14T10:42:53;101727.53;;;5.99;68.55
62895;BME280;49204;44.916;37.998;2023-03-14T10:47:59;101732.72;;;6.04;68.59
62895;BME280;49204;44.916;37.998;2023-03-14T10:50:30;101714.83;;;6.07;68.52
62895;BME280;49204;44.916;37.998;2023-03-14T10:53:02;101704.37;;;6.11;68.45
62895;BME280;49204;44.916;37.998;2023-03-14T10:55:41;101702.16;;;6.18;68.36
62895;BME280;49204;44.916;37.998;2023-03-14T10:58:29;101700.34;;;6.27;68.18
62895;BME280;49204;44.916;37.998;2023-03-14T11:01:13;101700.30;;;6.36;68.07
62895;BME280;49204;44.916;37.998;2023-03-14T11:03:41;101702.84;;;6.48;68.00
62895;BME280;49204;44.916;37.998;2023-03-14T11:11:46;101696.74;;;6.49;67.54
62895;BME280;49204;44.916;37.998;2023-03-14T11:14:29;101701.98;;;6.46;67.51
62895;BME280;49204;44.916;37.998;2023-03-14T11:20:04;101689.83;;;6.36;67.44
62895;BME280;49204;44.916;37.998;2023-03-14T11:22:38;101681.97;;;6.39;67.72
62895;BME280;49204;44.916;37.998;2023-03-14T11:28:25;101669.59;;;6.63;67.79
62895;BME280;49204;44.916;37.998;2023-03-14T11:30:54;101659.44;;;6.79;67.61
62895;BME280;49204;44.916;37.998;2023-03-14T11:33:31;101658.84;;;6.95;67.45
62895;BME280;49204;44.916;37.998;2023-03-14T11:36:09;101643.48;;;7.04;67.18
62895;BME280;49204;44.916;37.998;2023-03-14T11:38:45;101656.98;;;7.06;66.83
62895;BME280;49204;44.916;37.998;2023-03-14T11:41:22;101648.23;;;7.12;66.43
62895;BME280;49204;44.916;37.998;2023-03-14T11:43:52;101637.66;;;7.20;66.14
62895;BME280;49204;44.916;37.998;2023-03-14T11:46:38;101643.77;;;7.20;65.96
62895;BME280;49204;44.916;37.998;2023-03-14T11:49:34;101642.43;;;7.23;65.96
62895;BME280;49204;44.916;37.998;2023-03-14T11:52:12;101637.19;;;7.23;65.66
62895;BME280;49204;44.916;37.998;2023-03-14T11:57:27;101639.98;;;7.46;65.52
62895;BME280;49204;44.916;37.998;2023-03-14T12:00:13;101619.19;;;7.67;65.24
62895;BME280;49204;44.916;37.998;2023-03-14T12:05:58;101616.17;;;7.96;63.67
62895;BME280;49204;44.916;37.998;2023-03-14T12:08:52;101598.78;;;8.21;63.10
62895;BME280;49204;44.916;37.998;2023-03-14T12:14:28;101600.60;;;8.44;62.22
62895;BME280;49204;44.916;37.998;2023-03-14T12:17:22;101600.05;;;8.53;61.85
62895;BME280;49204;44.916;37.998;2023-03-14T12:19:35;101604.34;;;8.57;61.93
62895;BME280;49204;44.916;37.998;2023-03-14T12:24:57;101601.86;;;8.49;61.65
62895;BME280;49204;44.916;37.998;2023-03-14T12:27:46;101605.45;;;8.43;61.65
62895;BME280;49204;44.916;37.998;2023-03-14T12:30:35;101604.58;;;8.41;61.79
62895;BME280;49204;44.916;37.998;2023-03-14T12:33:20;101597.34;;;8.56;62.11
62895;BME280;49204;44.916;37.998;2023-03-14T12:35:51;101586.24;;;8.67;62.00
62895;BME280;49204;44.916;37.998;2023-03-14T12:41:36;101592.05;;;8.84;60.93
62895;BME280;49204;44.916;37.998;2023-03-14T12:49:51;101597.70;;;8.34;61.48
62895;BME280;49204;44.916;37.998;2023-03-14T12:52:46;101596.67;;;8.16;61.75
62895;BME280;49204;44.916;37.998;2023-03-14T12:55:21;101586.65;;;8.14;62.20
62895;BME280;49204;44.916;37.998;2023-03-14T12:57:57;101583.31;;;8.29;62.51
62895;BME280;49204;44.916;37.998;2023-03-14T13:00:33;101578.98;;;8.28;62.01
62895;BME280;49204;44.916;37.998;2023-03-14T13:06:00;101572.69;;;8.14;62.41
62895;BME280;49204;44.916;37.998;2023-03-14T13:08:40;101572.69;;;8.11;62.74
62895;BME280;49204;44.916;37.998;2023-03-14T13:11:20;101573.13;;;8.09;63.00
62895;BME280;49204;44.916;37.998;2023-03-14T13:13:57;101572.27;;;8.09;63.11
62895;BME280;49204;44.916;37.998;2023-03-14T13:16:29;101567.48;;;8.08;63.22
62895;BME280;49204;44.916;37.998;2023-03-14T13:19:14;101570.80;;;8.20;63.27
62895;BME280;49204;44.916;37.998;2023-03-14T13:21:41;101560.97;;;8.33;63.09
62895;BME280;49204;44.916;37.998;2023-03-14T13:24:26;101556.89;;;8.43;62.84
62895;BME280;49204;44.916;37.998;2023-03-14T13:26:56;101557.73;;;8.45;62.53
62895;BME280;49204;44.916;37.998;2023-03-14T13:29:30;101551.03;;;8.53;62.64
62895;BME280;49204;44.916;37.998;2023-03-14T13:32:10;101543.97;;;8.57;62.27
62895;BME280;49204;44.916;37.998;2023-03-14T13:34:34;101547.43;;;8.59;62.08
62895;BME280;49204;44.916;37.998;2023-03-14T13:37:03;101545.41;;;8.50;61.66
62895;BME280;49204;44.916;37.998;2023-03-14T13:39:32;101537.21;;;8.43;62.00
62895;BME280;49204;44.916;37.998;2023-03-14T13:42:01;101541.16;;;8.40;62.19
62895;BME280;49204;44.916;37.998;2023-03-14T13:44:40;101533.88;;;8.32;62.21
62895;BME280;49204;44.916;37.998;2023-03-14T13:47:12;101524.73;;;8.29;62.20
62895;BME280;49204;44.916;37.998;2023-03-14T13:49:37;101510.14;;;8.38;62.29
62895;BME280;49204;44.916;37.998;2023-03-14T13:54:54;101508.41;;;8.63;62.05
62895;BME280;49204;44.916;37.998;2023-03-14T13:57:23;101517.50;;;8.69;61.92
62895;BME280;49204;44.916;37.998;2023-03-14T14:00:05;101513.13;;;8.68;61.84
62895;BME280;49204;44.916;37.998;2023-03-14T14:02:32;101501.36;;;8.65;61.91
62895;BME280;49204;44.916;37.998;2023-03-14T14:05:02;101490.16;;;8.57;61.59
62895;BME280;49204;44.916;37.998;2023-03-14T14:07:31;101490.30;;;8.49;61.98
62895;BME280;49204;44.916;37.998;2023-03-14T14:10:00;101499.53;;;8.46;62.27
62895;BME280;49204;44.916;37.998;2023-03-14T14:12:42;101499.56;;;8.44;62.47
62895;BME280;49204;44.916;37.998;2023-03-14T14:15:14;101491.69;;;8.44;62.56
62895;BME280;49204;44.916;37.998;2023-03-14T14:17:55;101495.58;;;8.47;62.51